Thornton, West Virginia
Current Conditions -  °F | °C
As of 10:53 PM on Sunday 23 Nov 2014 (Local Time) from KCKB Reporting Station
Moderate Rain Moderate Rain  
Wind Chill: 58°   Ceiling: 8000
Heat Index: 58°   Visibility: 5mi
Dew Point: 53°   Wind: 13mph
Humidity: 84%   Direction: 140°SE
Pressure: 29.53"   Gusts: NA
Location:  39.35°N, 79.94°W
Report Text: KCKB 240353Z AUTO 14011KT 5SM RA FEW060 BKN080 OVC090 14/12 A2953 RMK AO2 PRESFR SLP991 P0008 T01440117 TSNO
Loading
Personal Weather Stations






























Interactive Weather Map New forecast layout! Learn more

10-Day Weather Forecast

Advertisements
Track Severe Weather on mobile